createdAt,value
2023-04-14T00:00:36.950Z,74.97
2023-04-14T00:03:04.174Z,74.83
2023-04-14T00:05:31.738Z,72.25
2023-04-14T00:07:58.570Z,73.58
2023-04-14T00:10:25.798Z,74.04
2023-04-14T00:12:52.832Z,73.67
2023-04-14T00:15:19.476Z,74.20
2023-04-14T00:17:46.085Z,72.75
2023-04-14T00:20:13.034Z,72.36
2023-04-14T00:22:39.662Z,72.40
2023-04-14T00:25:06.687Z,72.49
2023-04-14T00:27:33.271Z,71.15
2023-04-14T00:29:59.888Z,71.55
2023-04-14T00:32:26.475Z,71.79
2023-04-14T00:34:53.104Z,71.47
2023-04-14T00:37:19.664Z,71.00
2023-04-14T00:39:46.320Z,71.48
2023-04-14T00:42:12.870Z,71.27
2023-04-14T00:44:39.463Z,71.74
2023-04-14T00:47:07.402Z,71.59
2023-04-14T00:49:36.420Z,71.87
2023-04-14T00:52:04.040Z,71.64
2023-04-14T00:54:32.498Z,71.81
2023-04-14T00:56:59.139Z,71.49
2023-04-14T00:59:25.853Z,72.23
2023-04-14T01:01:52.593Z,71.52
2023-04-14T01:04:20.253Z,71.12
2023-04-14T01:06:46.991Z,71.57
2023-04-14T01:09:16.208Z,70.89
2023-04-14T01:12:02.648Z,71.04
2023-04-14T01:14:44.862Z,70.83
2023-04-14T01:17:19.035Z,70.67
2023-04-14T01:20:02.782Z,71.74
2023-04-14T01:22:36.179Z,71.47
2023-04-14T01:25:36.777Z,72.61
2023-04-14T01:28:14.167Z,72.80
2023-04-14T01:30:59.366Z,73.37
2023-04-14T01:33:30.394Z,72.47
2023-04-14T01:36:05.976Z,72.64
2023-04-14T01:38:34.495Z,72.58
2023-04-14T01:41:14.550Z,71.76
2023-04-14T01:43:45.274Z,73.14
2023-04-14T01:46:14.513Z,73.18
2023-04-14T01:48:41.993Z,72.06
2023-04-14T01:51:10.141Z,73.30
2023-04-14T01:53:42.868Z,73.61
2023-04-14T01:56:12.850Z,73.34
2023-04-14T01:58:41.878Z,72.53
2023-04-14T02:01:08.685Z,73.08
2023-04-14T02:03:37.140Z,74.18
2023-04-14T02:06:06.360Z,73.87
2023-04-14T02:08:34.279Z,73.91
2023-04-14T02:11:02.561Z,74.10
2023-04-14T02:13:32.125Z,74.05
2023-04-14T02:16:01.678Z,74.11
2023-04-14T02:18:31.431Z,73.51
2023-04-14T02:21:01.317Z,73.92
2023-04-14T02:23:28.312Z,74.12
2023-04-14T02:26:04.089Z,73.79
2023-04-14T02:28:34.265Z,73.34
2023-04-14T02:31:07.463Z,73.27
2023-04-14T02:33:36.978Z,74.82
2023-04-14T02:36:22.142Z,74.16
2023-04-14T02:38:55.927Z,74.76
2023-04-14T02:41:25.788Z,73.84
2023-04-14T02:44:04.102Z,74.21
2023-04-14T02:46:37.706Z,74.75
2023-04-14T02:49:07.283Z,74.21
2023-04-14T02:51:37.867Z,75.16
2023-04-14T02:54:05.614Z,74.77
2023-04-14T02:56:45.174Z,73.45
2023-04-14T02:59:13.118Z,74.08
2023-04-14T03:01:51.768Z,75.06
2023-04-14T03:04:18.905Z,77.11
2023-04-14T03:06:45.981Z,77.47
2023-04-14T03:09:13.710Z,76.92
2023-04-14T03:11:41.797Z,77.68
2023-04-14T03:14:09.124Z,78.33
2023-04-14T03:16:39.367Z,78.78
2023-04-14T03:19:08.264Z,77.56
2023-04-14T03:21:38.630Z,78.75
2023-04-14T03:24:07.019Z,80.05
2023-04-14T03:26:36.960Z,80.07
2023-04-14T03:29:07.368Z,81.29
2023-04-14T03:31:37.301Z,81.25
2023-04-14T03:34:06.983Z,82.22
2023-04-14T03:36:39.534Z,82.29
2023-04-14T03:39:08.128Z,81.66
2023-04-14T03:41:39.663Z,82.46
2023-04-14T03:44:15.487Z,81.71
2023-04-14T03:46:44.928Z,80.66
2023-04-14T03:49:16.731Z,80.99
2023-04-14T03:51:48.067Z,81.53
2023-04-14T03:54:16.595Z,80.78
2023-04-14T03:56:47.518Z,80.74
2023-04-14T03:59:17.022Z,81.73
2023-04-14T04:01:46.206Z,82.47
2023-04-14T04:04:13.598Z,81.77
2023-04-14T04:06:41.952Z,81.58
2023-04-14T04:09:12.507Z,82.73
2023-04-14T04:11:41.924Z,83.39
2023-04-14T04:14:09.814Z,83.55
2023-04-14T04:16:40.801Z,83.78
2023-04-14T04:19:10.699Z,84.21
2023-04-14T04:21:41.766Z,84.05
2023-04-14T04:24:10.244Z,83.66
2023-04-14T04:26:37.524Z,83.11
2023-04-14T04:29:04.784Z,82.68
2023-04-14T04:31:33.407Z,82.72
2023-04-14T04:34:00.715Z,82.49
2023-04-14T04:36:28.408Z,82.91
2023-04-14T04:38:57.023Z,82.51
2023-04-14T04:41:26.158Z,82.76
2023-04-14T04:43:54.151Z,82.80
2023-04-14T04:46:46.255Z,83.43
2023-04-14T04:49:14.945Z,83.48
2023-04-14T04:51:41.744Z,83.52
2023-04-14T04:54:08.364Z,83.93
2023-04-14T04:56:34.956Z,84.04
2023-04-14T04:59:02.000Z,84.09
2023-04-14T05:01:29.011Z,84.26
2023-04-14T05:03:56.002Z,84.34
2023-04-14T05:06:22.929Z,84.11
2023-04-14T05:08:53.797Z,85.31
2023-04-14T05:11:21.073Z,85.02
2023-04-14T05:13:47.918Z,84.64
2023-04-14T05:16:14.838Z,84.55
2023-04-14T05:18:42.214Z,85.59
2023-04-14T05:21:12.643Z,85.50
2023-04-14T05:23:42.188Z,85.96
2023-04-14T05:26:31.107Z,85.61
2023-04-14T05:28:56.188Z,86.16
2023-04-14T05:31:23.111Z,85.75
2023-04-14T05:33:49.725Z,86.06
2023-04-14T05:36:16.363Z,86.64
2023-04-14T05:38:43.132Z,85.54
2023-04-14T05:41:09.817Z,86.16
2023-04-14T05:43:37.600Z,85.96
2023-04-14T05:46:04.295Z,85.71
2023-04-14T05:48:33.124Z,85.94
2023-04-14T05:50:59.751Z,85.51
2023-04-14T05:53:27.472Z,85.32
2023-04-14T05:55:54.126Z,85.95
2023-04-14T05:58:20.699Z,85.13
2023-04-14T06:00:47.464Z,84.42
2023-04-14T06:03:16.289Z,84.18
2023-04-14T06:05:43.307Z,84.77
2023-04-14T06:08:09.958Z,84.91
2023-04-14T06:10:36.636Z,84.45
2023-04-14T06:13:03.200Z,85.22
2023-04-14T06:15:29.933Z,85.10
2023-04-14T06:17:56.898Z,85.87
2023-04-14T06:20:23.594Z,85.42
2023-04-14T06:22:50.486Z,85.08
2023-04-14T06:25:17.180Z,84.51
2023-04-14T06:27:43.917Z,84.51
2023-04-14T06:30:10.832Z,85.00
2023-04-14T06:32:37.541Z,84.76
2023-04-14T06:35:05.009Z,84.80
2023-04-14T06:37:32.268Z,84.29
2023-04-14T06:39:59.007Z,83.95
2023-04-14T06:42:25.806Z,84.51
2023-04-14T06:44:52.445Z,84.42
2023-04-14T06:47:21.822Z,83.93
2023-04-14T06:49:48.587Z,83.89
2023-04-14T06:52:15.277Z,83.55
2023-04-14T06:54:42.426Z,83.73
2023-04-14T06:57:09.369Z,84.09
2023-04-14T06:59:36.623Z,83.83
2023-04-14T07:02:03.329Z,83.31
2023-04-14T07:04:30.177Z,84.22
2023-04-14T07:07:01.283Z,83.96
2023-04-14T07:09:28.874Z,83.32
2023-04-14T07:11:57.305Z,82.80
2023-04-14T07:14:24.935Z,83.07
2023-04-14T07:16:52.771Z,82.90
2023-04-14T07:19:19.947Z,82.02
2023-04-14T07:21:47.158Z,82.63
2023-04-14T07:24:15.508Z,83.58
2023-04-14T07:26:44.174Z,84.14
2023-04-14T07:29:10.898Z,84.28
2023-04-14T07:31:38.904Z,83.95
2023-04-14T07:34:05.954Z,83.52
2023-04-14T07:36:33.244Z,83.57
2023-04-14T07:39:00.260Z,84.39
2023-04-14T07:41:27.921Z,82.93
2023-04-14T07:43:59.321Z,83.86
2023-04-14T07:46:26.479Z,84.19
2023-04-14T07:48:53.531Z,84.14
2023-04-14T07:51:20.611Z,84.38
2023-04-14T07:53:47.295Z,84.39
2023-04-14T07:56:14.927Z,84.29
2023-04-14T07:58:41.493Z,84.18
2023-04-14T08:01:08.151Z,84.52
2023-04-14T08:03:37.447Z,83.73
2023-04-14T08:06:05.852Z,84.16
2023-04-14T08:08:33.700Z,84.41
2023-04-14T08:11:00.358Z,84.40
2023-04-14T08:13:27.011Z,85.02
2023-04-14T08:15:53.659Z,84.91
2023-04-14T08:18:20.549Z,84.64
2023-04-14T08:20:47.324Z,84.30
2023-04-14T08:23:14.036Z,84.66
2023-04-14T08:25:40.819Z,84.29
2023-04-14T08:28:07.467Z,84.42
2023-04-14T08:30:34.220Z,85.08
2023-04-14T08:33:00.947Z,84.27
2023-04-14T08:35:37.344Z,85.29
2023-04-14T08:38:07.495Z,84.60
2023-04-14T08:40:38.361Z,85.35
2023-04-14T08:43:06.030Z,85.35
2023-04-14T08:45:33.322Z,85.47
2023-04-14T08:48:02.237Z,84.99
2023-04-14T08:50:36.259Z,84.86
2023-04-14T08:53:06.144Z,85.52
2023-04-14T08:55:33.853Z,85.86
2023-04-14T08:58:02.274Z,86.23
2023-04-14T09:00:29.373Z,85.68
2023-04-14T09:02:57.248Z,84.97
2023-04-14T09:05:24.260Z,85.74
2023-04-14T09:07:51.769Z,85.43
2023-04-14T09:10:20.945Z,85.28
2023-04-14T09:12:48.652Z,84.55
2023-04-14T09:15:16.894Z,84.61
2023-04-14T09:17:44.203Z,84.47
2023-04-14T09:20:37.961Z,85.44
2023-04-14T09:22:59.091Z,84.38
2023-04-14T09:25:25.778Z,84.97
2023-04-14T09:27:52.532Z,84.75
2023-04-14T09:30:20.016Z,85.20
2023-04-14T09:32:51.429Z,85.25
2023-04-14T09:35:18.409Z,84.85
2023-04-14T09:37:46.792Z,85.23
2023-04-14T09:40:29.812Z,85.00
2023-04-14T09:42:57.812Z,84.91
2023-04-14T09:45:44.816Z,85.02
2023-04-14T09:48:15.639Z,85.00
2023-04-14T09:51:03.450Z,84.26
2023-04-14T09:53:32.606Z,84.88
2023-04-14T09:56:02.715Z,84.72
2023-04-14T09:58:50.421Z,84.35
2023-04-14T10:01:21.337Z,84.35
2023-04-14T10:03:49.973Z,85.17
2023-04-14T10:06:18.974Z,86.26
2023-04-14T10:08:51.520Z,86.25
2023-04-14T10:11:19.200Z,85.39
2023-04-14T10:13:50.701Z,86.05
2023-04-14T10:16:18.079Z,85.89
2023-04-14T10:18:45.339Z,86.15
2023-04-14T10:21:13.245Z,85.67
2023-04-14T10:23:44.146Z,86.25
2023-04-14T10:26:12.356Z,86.22
2023-04-14T10:28:48.016Z,85.75
2023-04-14T10:31:23.906Z,85.89
2023-04-14T10:33:51.084Z,85.62
2023-04-14T10:36:29.267Z,85.53
2023-04-14T10:39:02.019Z,86.28
2023-04-14T10:41:48.788Z,85.65
2023-04-14T10:44:26.323Z,86.63
2023-04-14T10:46:56.139Z,85.86
2023-04-14T10:49:32.718Z,85.80
2023-04-14T10:52:14.794Z,85.31
2023-04-14T10:55:08.165Z,85.38
2023-04-14T10:57:43.393Z,86.22
2023-04-14T11:00:26.760Z,86.00
2023-04-14T11:03:13.399Z,85.27
2023-04-14T11:05:58.674Z,85.89
2023-04-14T11:08:35.888Z,85.81
2023-04-14T11:11:06.883Z,86.55
2023-04-14T11:13:34.801Z,86.45
2023-04-14T11:16:04.090Z,86.19
2023-04-14T11:18:30.906Z,86.61
2023-04-14T11:21:07.453Z,86.35
2023-04-14T11:23:35.778Z,86.51
2023-04-14T11:26:04.798Z,86.73
2023-04-14T11:28:33.254Z,87.46
2023-04-14T11:31:01.596Z,87.14
2023-04-14T11:33:32.526Z,87.35
2023-04-14T11:35:59.377Z,87.54
2023-04-14T11:38:26.138Z,86.17
2023-04-14T11:40:53.190Z,86.38
2023-04-14T11:43:22.832Z,86.28
2023-04-14T11:45:50.859Z,87.45
2023-04-14T11:48:19.212Z,86.87
2023-04-14T11:50:47.965Z,87.26
2023-04-14T11:53:17.253Z,86.97
2023-04-14T11:55:48.869Z,87.46
2023-04-14T11:58:20.560Z,87.36
2023-04-14T12:00:49.024Z,87.38
2023-04-14T12:03:16.065Z,87.38
2023-04-14T12:05:43.091Z,86.84
2023-04-14T12:08:11.998Z,87.15
2023-04-14T12:10:41.935Z,87.24
2023-04-14T12:13:11.326Z,87.18
2023-04-14T12:15:42.150Z,87.27
2023-04-14T12:18:11.712Z,87.05
2023-04-14T12:20:51.374Z,87.37
2023-04-14T12:23:18.255Z,87.97
2023-04-14T12:25:44.918Z,87.32
2023-04-14T12:28:32.878Z,86.79
2023-04-14T12:31:04.107Z,86.85
2023-04-14T12:33:32.133Z,86.63
2023-04-14T12:36:05.116Z,86.96
2023-04-14T12:38:32.547Z,87.18
2023-04-14T12:40:59.905Z,86.69
2023-04-14T12:43:30.187Z,87.59
2023-04-14T12:45:58.226Z,88.12
2023-04-14T12:48:43.758Z,88.25
2023-04-14T12:51:13.342Z,88.17
2023-04-14T12:53:41.190Z,88.03
2023-04-14T12:56:19.592Z,87.88
2023-04-14T12:58:47.194Z,87.99
2023-04-14T13:01:17.285Z,87.85
2023-04-14T13:03:52.510Z,88.52
2023-04-14T13:06:20.904Z,88.18
2023-04-14T13:08:49.860Z,88.70
2023-04-14T13:11:18.318Z,88.25
2023-04-14T13:13:45.804Z,88.30
2023-04-14T13:16:18.758Z,88.34
2023-04-14T13:18:48.480Z,88.57
2023-04-14T13:21:15.858Z,88.47
2023-04-14T13:23:42.632Z,88.97
2023-04-14T13:26:09.728Z,89.15
2023-04-14T13:28:36.853Z,88.81
2023-04-14T13:31:03.521Z,88.69
2023-04-14T13:33:31.021Z,88.57
2023-04-14T13:35:57.577Z,88.16
2023-04-14T13:38:24.248Z,88.66
2023-04-14T13:40:50.854Z,88.56
2023-04-14T13:43:18.808Z,88.56
2023-04-14T13:45:46.364Z,88.31
2023-04-14T13:48:13.774Z,88.57
2023-04-14T13:50:40.492Z,88.21
2023-04-14T13:53:07.208Z,88.49
2023-04-14T13:55:35.367Z,88.84
2023-04-14T13:58:02.011Z,89.11
2023-04-14T14:00:28.646Z,87.91
2023-04-14T14:02:56.578Z,88.21
2023-04-14T14:05:23.465Z,89.03
2023-04-14T14:07:50.412Z,88.64
2023-04-14T14:10:17.150Z,88.88
2023-04-14T14:12:43.815Z,88.27
2023-04-14T14:15:11.320Z,88.24
2023-04-14T14:17:38.029Z,88.70
2023-04-14T14:20:04.995Z,89.01
2023-04-14T14:22:31.541Z,89.13
2023-04-14T14:25:10.633Z,88.64
2023-04-14T14:27:42.272Z,88.24
2023-04-14T14:30:09.362Z,88.86
2023-04-14T14:32:36.080Z,88.98
2023-04-14T14:35:04.288Z,89.08
2023-04-14T14:37:30.965Z,88.90
2023-04-14T14:39:57.939Z,88.79
2023-04-14T14:42:24.500Z,88.53
2023-04-14T14:44:51.367Z,88.20
2023-04-14T14:47:17.996Z,88.48
2023-04-14T14:49:56.387Z,88.45
2023-04-14T14:52:23.691Z,88.74
2023-04-14T14:54:50.370Z,88.82
2023-04-14T14:57:19.503Z,89.22
2023-04-14T14:59:46.647Z,88.75
2023-04-14T15:02:13.345Z,89.03
2023-04-14T15:04:40.368Z,88.96
2023-04-14T15:07:07.636Z,88.87
2023-04-14T15:09:34.283Z,89.04
2023-04-14T15:12:00.923Z,88.94
2023-04-14T15:14:27.594Z,88.99
2023-04-14T15:16:54.327Z,89.08
2023-04-14T15:19:21.031Z,89.10
2023-04-14T15:21:47.748Z,89.20
2023-04-14T15:24:14.331Z,89.26
2023-04-14T15:26:41.994Z,89.52
2023-04-14T15:29:10.122Z,89.86
2023-04-14T15:31:38.093Z,89.71
2023-04-14T15:34:06.228Z,89.23
2023-04-14T15:36:34.374Z,89.22
2023-04-14T15:39:02.516Z,89.24
2023-04-14T15:41:30.592Z,88.87
2023-04-14T15:43:58.649Z,89.16
2023-04-14T15:46:27.932Z,88.44
2023-04-14T15:48:56.486Z,88.67
2023-04-14T15:51:24.464Z,88.55
2023-04-14T15:53:52.873Z,88.68
2023-04-14T15:56:23.834Z,88.47
2023-04-14T15:58:52.044Z,88.77
2023-04-14T16:01:20.441Z,89.03
2023-04-14T16:03:51.250Z,89.28
2023-04-14T16:06:20.897Z,88.79
2023-04-14T16:08:49.199Z,89.36
2023-04-14T16:11:17.916Z,89.04
2023-04-14T16:13:46.733Z,89.24
2023-04-14T16:16:16.798Z,89.46
2023-04-14T16:18:44.926Z,88.99
2023-04-14T16:21:13.186Z,89.52
2023-04-14T16:23:42.138Z,88.87
2023-04-14T16:26:10.358Z,89.40
2023-04-14T16:28:38.252Z,89.44
2023-04-14T16:31:07.014Z,89.33
2023-04-14T16:33:35.320Z,89.08
2023-04-14T16:36:08.296Z,88.68
2023-04-14T16:38:36.672Z,89.23
2023-04-14T16:41:04.915Z,89.20
2023-04-14T16:43:33.361Z,89.13
2023-04-14T16:46:03.589Z,89.04
2023-04-14T16:48:32.978Z,89.59
2023-04-14T16:51:06.034Z,89.29
2023-04-14T16:53:34.578Z,89.02
2023-04-14T16:56:09.993Z,89.18
2023-04-14T16:58:39.301Z,89.36
2023-04-14T17:01:07.743Z,89.48
2023-04-14T17:03:36.365Z,89.35
2023-04-14T17:06:05.019Z,89.13
2023-04-14T17:08:34.712Z,89.17
2023-04-14T17:11:02.858Z,89.43
2023-04-14T17:13:31.393Z,89.50
2023-04-14T17:16:08.148Z,89.75
2023-04-14T17:18:38.036Z,89.78
2023-04-14T17:21:07.023Z,89.61
2023-04-14T17:23:38.627Z,89.45
2023-04-14T17:26:07.040Z,89.64
2023-04-14T17:28:36.602Z,89.77
2023-04-14T17:31:14.418Z,89.39
2023-04-14T17:33:46.771Z,89.53
2023-04-14T17:36:18.295Z,90.09
2023-04-14T17:38:46.570Z,89.86
2023-04-14T17:41:14.764Z,90.00
2023-04-14T17:43:43.070Z,89.86
2023-04-14T17:46:12.265Z,89.82
2023-04-14T17:48:40.912Z,89.93
2023-04-14T17:51:09.286Z,89.61
2023-04-14T17:53:38.169Z,89.47
2023-04-14T17:56:06.789Z,89.58
2023-04-14T17:58:35.092Z,89.34
2023-04-14T18:01:03.195Z,89.41
2023-04-14T18:03:32.548Z,89.96
2023-04-14T18:06:01.198Z,89.46
2023-04-14T18:08:29.270Z,89.88
2023-04-14T18:10:59.580Z,90.29
2023-04-14T18:13:30.451Z,89.95
2023-04-14T18:15:58.378Z,89.66
2023-04-14T18:18:26.361Z,89.89
2023-04-14T18:20:54.605Z,89.91
2023-04-14T18:23:22.860Z,90.20
2023-04-14T18:28:33.818Z,89.86
2023-04-14T18:31:02.186Z,89.95
2023-04-14T18:33:30.372Z,89.57
2023-04-14T18:36:00.946Z,90.09
2023-04-14T18:38:29.207Z,89.78
2023-04-14T18:41:03.508Z,89.76
2023-04-14T18:43:33.310Z,89.86
2023-04-14T18:46:01.324Z,90.09
2023-04-14T18:48:29.240Z,90.22
2023-04-14T18:50:59.983Z,90.22
2023-04-14T18:53:26.617Z,90.14
2023-04-14T18:55:53.300Z,90.01
2023-04-14T18:58:19.904Z,90.26
2023-04-14T19:00:46.559Z,90.67
2023-04-14T19:03:13.309Z,90.51
2023-04-14T19:05:39.938Z,90.30
2023-04-14T19:08:09.693Z,90.70
2023-04-14T19:10:37.257Z,90.41
2023-04-14T19:13:03.798Z,90.28
2023-04-14T19:15:30.486Z,90.32
2023-04-14T19:17:57.725Z,90.44
2023-04-14T19:20:24.515Z,90.54
2023-04-14T19:22:51.307Z,90.88
2023-04-14T19:25:18.458Z,90.77
2023-04-14T19:27:45.261Z,90.75
2023-04-14T19:30:12.567Z,90.48
2023-04-14T19:32:39.733Z,90.67
2023-04-14T19:35:07.752Z,90.71
2023-04-14T19:37:35.241Z,90.77
2023-04-14T19:40:06.007Z,90.72
2023-04-14T19:42:33.285Z,90.62
2023-04-14T19:45:00.561Z,90.26
2023-04-14T19:47:27.831Z,90.50
2023-04-14T19:49:55.107Z,90.33
2023-04-14T19:52:22.567Z,90.23
2023-04-14T19:54:49.666Z,89.84
2023-04-14T19:57:16.812Z,89.95
2023-04-14T19:59:44.349Z,90.83
2023-04-14T20:02:13.152Z,90.75
2023-04-14T20:04:40.640Z,90.51
2023-04-14T20:07:07.563Z,90.62
2023-04-14T20:09:34.706Z,91.05
2023-04-14T20:12:02.327Z,91.35
2023-04-14T20:14:29.652Z,90.72
2023-04-14T20:16:56.747Z,90.63
2023-04-14T20:19:24.023Z,90.64
2023-04-14T20:21:50.933Z,90.71
2023-04-14T20:24:17.897Z,90.76
2023-04-14T20:26:45.102Z,90.39
2023-04-14T20:29:12.324Z,90.76
2023-04-14T20:31:39.726Z,90.66
2023-04-14T20:34:06.341Z,90.92
2023-04-14T20:36:35.926Z,90.71
2023-04-14T20:39:06.106Z,90.97
2023-04-14T20:41:34.669Z,90.84
2023-04-14T20:44:01.470Z,91.35
2023-04-14T20:46:28.840Z,91.18
2023-04-14T20:48:56.614Z,90.71
2023-04-14T20:51:23.565Z,91.03
2023-04-14T20:53:50.734Z,91.07
2023-04-14T20:56:17.738Z,91.31
2023-04-14T20:58:45.469Z,90.86
2023-04-14T21:01:12.224Z,90.82
2023-04-14T21:03:39.155Z,90.90
2023-04-14T21:06:06.673Z,90.75
2023-04-14T21:08:33.366Z,91.06
2023-04-14T21:11:14.610Z,91.22
2023-04-14T21:15:30.865Z,90.54
2023-04-14T21:16:30.566Z,90.33
2023-04-14T21:18:57.456Z,90.45
2023-04-14T21:21:24.137Z,90.55
2023-04-14T21:23:50.871Z,90.84
2023-04-14T21:26:17.783Z,91.07
2023-04-14T21:28:44.522Z,90.83
2023-04-14T21:31:11.312Z,90.78
2023-04-14T21:33:41.544Z,91.05
2023-04-14T21:36:09.675Z,91.12
2023-04-14T21:38:37.504Z,91.30
2023-04-14T21:41:04.271Z,90.57
2023-04-14T21:43:30.923Z,90.58
2023-04-14T21:45:57.838Z,90.36
2023-04-14T21:48:24.584Z,90.70
2023-04-14T21:50:51.232Z,90.79
2023-04-14T21:53:18.068Z,90.76
2023-04-14T21:55:44.738Z,90.78
2023-04-14T21:58:11.332Z,91.23
2023-04-14T22:00:37.924Z,90.68
2023-04-14T22:03:04.844Z,90.88
2023-04-14T22:05:31.824Z,90.55
2023-04-14T22:07:58.504Z,91.07
2023-04-14T22:10:31.752Z,91.18
2023-04-14T22:13:00.372Z,91.59
2023-04-14T22:15:27.488Z,91.33
2023-04-14T22:17:54.267Z,91.91
2023-04-14T22:20:23.156Z,92.10
2023-04-14T22:22:49.765Z,91.88
2023-04-14T22:25:16.672Z,92.20
2023-04-14T22:27:43.348Z,91.79
2023-04-14T22:30:10.777Z,92.05
2023-04-14T22:32:37.438Z,91.85
2023-04-14T22:35:04.524Z,92.16
2023-04-14T22:37:31.248Z,92.02
2023-04-14T22:39:57.897Z,92.18
2023-04-14T22:42:25.830Z,91.75
2023-04-14T22:44:53.475Z,91.54
2023-04-14T22:47:20.770Z,92.08
2023-04-14T22:49:47.350Z,91.78
2023-04-14T22:52:13.952Z,91.95
2023-04-14T22:54:40.585Z,91.96
2023-04-14T22:57:07.357Z,91.93
2023-04-14T22:59:33.921Z,91.95
2023-04-14T23:02:00.775Z,92.21
2023-04-14T23:04:27.522Z,92.09
2023-04-14T23:06:54.095Z,91.69
2023-04-14T23:09:21.119Z,92.00
2023-04-14T23:11:47.826Z,91.82
2023-04-14T23:14:14.418Z,92.00
2023-04-14T23:16:41.114Z,91.96
2023-04-14T23:19:07.893Z,91.96
2023-04-14T23:21:34.675Z,92.13
2023-04-14T23:24:01.544Z,92.01
2023-04-14T23:26:28.506Z,92.07
2023-04-14T23:28:55.111Z,91.87
2023-04-14T23:31:21.852Z,91.74
2023-04-14T23:33:50.911Z,92.27
2023-04-14T23:36:17.495Z,92.27
2023-04-14T23:38:44.728Z,92.07
2023-04-14T23:41:11.354Z,92.21
2023-04-14T23:43:37.935Z,91.88
2023-04-14T23:46:04.714Z,91.87
2023-04-14T23:48:31.440Z,92.12
2023-04-14T23:51:01.344Z,91.72
2023-04-14T23:53:44.836Z,91.95
2023-04-14T23:56:11.493Z,91.89
2023-04-14T23:58:38.111Z,92.08
